createdAt,value
2022-12-19T00:00:46.063Z,14.30
2022-12-19T00:03:12.561Z,19.70
2022-12-19T00:05:39.279Z,20.13
2022-12-19T00:08:17.056Z,14.63
2022-12-19T00:10:44.225Z,18.77
2022-12-19T00:13:10.490Z,21.95
2022-12-19T00:15:36.753Z,14.13
2022-12-19T00:18:03.051Z,22.92
2022-12-19T00:20:29.325Z,14.77
2022-12-19T00:22:55.564Z,16.05
2022-12-19T00:25:21.903Z,23.05
2022-12-19T00:27:48.388Z,14.68
2022-12-19T00:30:14.719Z,11.20
2022-12-19T00:32:41.314Z,17.77
2022-12-19T00:35:07.712Z,15.35
2022-12-19T00:37:33.997Z,16.58
2022-12-19T00:40:00.294Z,18.08
2022-12-19T00:42:27.847Z,16.40
2022-12-19T00:44:55.006Z,20.75
2022-12-19T00:47:21.378Z,21.17
2022-12-19T00:49:50.430Z,18.45
2022-12-19T00:52:17.252Z,15.55
2022-12-19T00:54:43.605Z,11.32
2022-12-19T00:57:09.959Z,12.95
2022-12-19T00:59:36.226Z,9.65
2022-12-19T01:02:02.653Z,16.63
2022-12-19T01:04:30.093Z,15.18
2022-12-19T01:07:01.937Z,9.60
2022-12-19T01:09:29.627Z,13.32
2022-12-19T01:12:14.633Z,19.70
2022-12-19T01:14:40.955Z,18.02
2022-12-19T01:17:07.379Z,18.02
2022-12-19T01:19:33.666Z,10.55
2022-12-19T01:21:59.961Z,20.55
2022-12-19T01:24:26.322Z,16.67
2022-12-19T01:26:52.600Z,9.45
2022-12-19T01:29:18.999Z,19.13
2022-12-19T01:31:45.330Z,14.52
2022-12-19T01:34:11.721Z,19.98
2022-12-19T01:36:39.930Z,17.77
2022-12-19T01:39:06.805Z,15.07
2022-12-19T01:41:33.024Z,17.85
2022-12-19T01:44:01.218Z,20.48
2022-12-19T01:46:36.173Z,16.42
2022-12-19T01:49:03.056Z,12.55
2022-12-19T01:51:34.742Z,15.50
2022-12-19T01:54:04.198Z,24.38
2022-12-19T01:56:32.585Z,23.55
2022-12-19T01:59:06.327Z,14.50
2022-12-19T02:01:33.708Z,18.70
2022-12-19T02:04:01.807Z,12.48
2022-12-19T02:06:28.846Z,13.23
2022-12-19T02:08:55.550Z,21.45
2022-12-19T02:11:21.835Z,13.20
2022-12-19T02:13:48.387Z,17.40
2022-12-19T02:16:18.711Z,17.77
2022-12-19T02:19:02.698Z,11.05
2022-12-19T02:21:32.063Z,16.88
2022-12-19T02:24:16.399Z,15.85
2022-12-19T02:26:51.505Z,13.18
2022-12-19T02:29:17.840Z,14.95
2022-12-19T02:31:48.086Z,21.13
2022-12-19T02:34:14.495Z,16.13
2022-12-19T02:36:50.335Z,11.18
2022-12-19T02:39:21.080Z,16.52
2022-12-19T02:41:50.074Z,16.48
2022-12-19T02:44:22.222Z,18.55
2022-12-19T02:46:49.655Z,14.68
2022-12-19T02:49:21.012Z,15.38
2022-12-19T02:51:51.307Z,21.35
2022-12-19T02:54:17.614Z,15.55
2022-12-19T02:56:43.882Z,13.00
2022-12-19T02:59:12.946Z,22.02
2022-12-19T03:02:00.071Z,20.08
2022-12-19T03:04:49.551Z,13.88
2022-12-19T03:07:27.923Z,20.58
2022-12-19T03:10:03.279Z,17.35
2022-12-19T03:12:32.867Z,12.27
2022-12-19T03:14:59.809Z,13.70
2022-12-19T03:17:26.243Z,13.88
2022-12-19T03:19:52.635Z,14.90
2022-12-19T03:22:18.973Z,16.92
2022-12-19T03:24:45.271Z,14.13
2022-12-19T03:27:14.389Z,17.00
2022-12-19T03:29:40.664Z,14.30
2022-12-19T03:32:09.067Z,17.58
2022-12-19T03:34:45.021Z,16.83
2022-12-19T03:37:14.607Z,11.88
2022-12-19T03:39:42.773Z,16.35
2022-12-19T03:42:28.672Z,13.30
2022-12-19T03:44:55.647Z,11.77
2022-12-19T03:47:28.056Z,16.40
2022-12-19T03:49:54.581Z,13.00
2022-12-19T03:52:33.186Z,10.35
2022-12-19T03:55:04.347Z,15.30
2022-12-19T03:57:35.788Z,17.50
2022-12-19T04:00:04.370Z,18.20
2022-12-19T04:02:34.042Z,11.13
2022-12-19T04:05:03.242Z,10.07
2022-12-19T04:07:29.812Z,11.07
2022-12-19T04:09:58.027Z,10.48
2022-12-19T04:12:28.242Z,8.80
2022-12-19T04:14:54.562Z,8.43
2022-12-19T04:17:26.904Z,12.75
2022-12-19T04:19:56.131Z,14.70
2022-12-19T04:22:29.287Z,11.43
2022-12-19T04:24:56.328Z,9.82
2022-12-19T04:27:22.649Z,9.15
2022-12-19T04:29:51.799Z,7.55
2022-12-19T04:32:19.054Z,11.40
2022-12-19T04:34:45.342Z,10.55
2022-12-19T04:37:12.839Z,13.25
2022-12-19T04:39:39.220Z,12.20
2022-12-19T04:42:05.532Z,9.38
2022-12-19T04:44:31.816Z,11.88
2022-12-19T04:46:58.179Z,14.40
2022-12-19T04:49:24.552Z,9.98
2022-12-19T04:51:50.891Z,12.75
2022-12-19T04:54:17.220Z,8.13
2022-12-19T04:56:43.532Z,14.27
2022-12-19T04:59:09.931Z,7.13
2022-12-19T05:01:36.430Z,7.95
2022-12-19T05:04:04.643Z,8.15
2022-12-19T05:06:31.313Z,14.35
2022-12-19T05:08:57.712Z,6.78
2022-12-19T05:11:24.042Z,11.23
2022-12-19T05:13:50.317Z,14.07
2022-12-19T05:16:16.753Z,8.50
2022-12-19T05:18:43.190Z,10.32
2022-12-19T05:21:09.499Z,8.77
2022-12-19T05:23:35.911Z,15.13
2022-12-19T05:26:03.327Z,8.75
2022-12-19T05:28:30.288Z,7.65
2022-12-19T05:31:04.016Z,9.88
2022-12-19T05:33:30.378Z,12.43
2022-12-19T05:35:56.699Z,9.18
2022-12-19T05:38:23.215Z,7.03
2022-12-19T05:40:49.491Z,9.27
2022-12-19T05:43:15.742Z,7.20
2022-12-19T05:45:42.031Z,10.68
2022-12-19T05:48:08.941Z,9.32
2022-12-19T05:50:35.889Z,5.85
2022-12-19T05:53:02.268Z,6.03
2022-12-19T05:55:28.739Z,8.98
2022-12-19T05:57:55.698Z,7.85
2022-12-19T06:00:22.301Z,10.35
2022-12-19T06:02:48.879Z,4.65
2022-12-19T06:05:15.241Z,6.65
2022-12-19T06:07:41.514Z,6.60
2022-12-19T06:10:07.942Z,7.15
2022-12-19T06:12:34.329Z,4.95
2022-12-19T06:15:00.645Z,11.30
2022-12-19T06:17:26.887Z,9.27
2022-12-19T06:19:53.197Z,8.55
2022-12-19T06:22:19.544Z,8.18
2022-12-19T06:24:45.775Z,20.15
2022-12-19T06:27:12.179Z,9.18
2022-12-19T06:29:38.491Z,6.38
2022-12-19T06:32:04.818Z,5.82
2022-12-19T06:35:02.272Z,6.10
2022-12-19T06:37:17.430Z,5.10
2022-12-19T06:39:43.726Z,6.47
2022-12-19T06:42:25.385Z,7.60
2022-12-19T06:44:52.233Z,3.38
2022-12-19T06:47:19.088Z,7.55
2022-12-19T06:49:48.651Z,6.90
2022-12-19T06:52:16.592Z,6.00
2022-12-19T06:54:42.901Z,6.78
2022-12-19T06:57:09.357Z,6.75
2022-12-19T06:59:35.612Z,5.03
2022-12-19T07:02:04.840Z,8.63
2022-12-19T07:04:36.643Z,4.90
2022-12-19T07:07:03.425Z,9.43
2022-12-19T07:09:30.504Z,6.40
2022-12-19T07:11:57.028Z,3.83
2022-12-19T07:14:23.322Z,6.10
2022-12-19T07:16:51.399Z,8.13
2022-12-19T07:19:17.968Z,9.60
2022-12-19T07:21:44.620Z,6.78
2022-12-19T07:24:11.730Z,8.93
2022-12-19T07:26:38.231Z,7.18
2022-12-19T07:29:04.532Z,5.85
2022-12-19T07:31:30.801Z,6.80
2022-12-19T07:33:57.947Z,6.68
2022-12-19T07:36:24.340Z,5.88
2022-12-19T07:38:50.649Z,8.60
2022-12-19T07:41:17.218Z,8.38
2022-12-19T07:43:43.595Z,6.18
2022-12-19T07:46:09.942Z,13.68
2022-12-19T07:48:36.346Z,6.55
2022-12-19T07:51:05.422Z,6.60
2022-12-19T07:53:31.731Z,7.85
2022-12-19T07:55:58.207Z,4.70
2022-12-19T07:58:24.625Z,5.57
2022-12-19T08:00:57.407Z,11.13
2022-12-19T08:03:24.615Z,8.25
2022-12-19T08:05:51.093Z,5.72
2022-12-19T08:08:17.356Z,4.53
2022-12-19T08:10:43.774Z,7.45
2022-12-19T08:13:10.195Z,7.20
2022-12-19T08:15:36.582Z,5.28
2022-12-19T08:18:03.455Z,6.90
2022-12-19T08:20:29.929Z,5.70
2022-12-19T08:22:56.284Z,4.82
2022-12-19T08:25:22.573Z,6.05
2022-12-19T08:27:48.896Z,5.82
2022-12-19T08:30:15.370Z,7.00
2022-12-19T08:32:41.757Z,9.05
2022-12-19T08:35:08.305Z,6.30
2022-12-19T08:37:35.038Z,5.35
2022-12-19T08:40:01.411Z,7.40
2022-12-19T08:42:27.839Z,6.22
2022-12-19T08:44:54.095Z,7.22
2022-12-19T08:47:20.421Z,7.78
2022-12-19T08:49:46.682Z,9.65
2022-12-19T08:52:13.046Z,6.10
2022-12-19T08:54:39.379Z,10.35
2022-12-19T08:57:05.609Z,7.65
2022-12-19T08:59:32.400Z,6.30
2022-12-19T09:02:00.030Z,4.00
2022-12-19T09:05:20.339Z,5.72
2022-12-19T09:07:15.385Z,5.78
2022-12-19T09:09:42.482Z,5.57
2022-12-19T09:12:08.981Z,4.30
2022-12-19T09:14:35.279Z,4.53
2022-12-19T09:17:01.720Z,3.67
2022-12-19T09:19:31.307Z,3.30
2022-12-19T09:21:57.703Z,4.80
2022-12-19T09:24:23.946Z,8.45
2022-12-19T09:26:50.369Z,6.18
2022-12-19T09:29:21.109Z,3.47
2022-12-19T09:31:51.175Z,5.90
2022-12-19T09:34:22.340Z,3.13
2022-12-19T09:36:50.396Z,4.45
2022-12-19T09:39:17.337Z,6.57
2022-12-19T09:42:02.415Z,6.32
2022-12-19T09:44:28.618Z,5.25
2022-12-19T09:46:56.975Z,4.43
2022-12-19T09:49:25.839Z,6.18
2022-12-19T09:52:11.010Z,4.97
2022-12-19T09:54:57.535Z,6.80
2022-12-19T09:57:30.334Z,6.13
2022-12-19T09:59:59.985Z,4.82
2022-12-19T10:02:43.441Z,4.68
2022-12-19T10:05:33.793Z,6.97
2022-12-19T10:08:08.909Z,4.47
2022-12-19T10:12:36.240Z,6.45
2022-12-19T10:13:55.164Z,5.43
2022-12-19T10:16:56.464Z,3.50
2022-12-19T10:20:00.630Z,4.50
2022-12-19T10:22:45.427Z,4.97
2022-12-19T10:25:27.930Z,7.18
2022-12-19T10:28:13.177Z,5.75
2022-12-19T10:30:44.777Z,8.77
2022-12-19T10:33:11.750Z,3.53
2022-12-19T10:35:46.060Z,5.97
2022-12-19T10:38:16.032Z,6.53
2022-12-19T10:40:45.630Z,7.38
2022-12-19T10:43:32.105Z,6.85
2022-12-19T10:46:02.650Z,7.20
2022-12-19T10:48:30.734Z,5.03
2022-12-19T10:50:57.923Z,5.32
2022-12-19T10:53:28.753Z,6.85
2022-12-19T10:55:56.860Z,4.78
2022-12-19T10:58:27.720Z,4.38
2022-12-19T11:03:20.491Z,9.93
2022-12-19T11:05:51.299Z,5.30
2022-12-19T11:08:25.612Z,5.38
2022-12-19T11:13:02.064Z,3.20
2022-12-19T11:16:59.601Z,4.10
2022-12-19T11:20:44.828Z,4.68
2022-12-19T11:29:17.073Z,3.45
2022-12-19T11:29:32.819Z,5.35
2022-12-19T11:29:42.410Z,5.18
2022-12-19T11:30:45.992Z,5.22
2022-12-19T11:34:21.371Z,4.32
2022-12-19T11:36:51.980Z,5.17
2022-12-19T11:39:41.662Z,3.53
2022-12-19T11:42:23.069Z,6.32
2022-12-19T11:44:57.426Z,5.55
2022-12-19T11:47:32.716Z,5.03
2022-12-19T11:50:22.391Z,3.38
2022-12-19T11:53:11.511Z,4.93
2022-12-19T11:55:45.021Z,5.30
2022-12-19T11:58:12.098Z,3.72
2022-12-19T12:00:47.967Z,3.78
2022-12-19T12:03:23.601Z,3.05
2022-12-19T12:05:51.335Z,4.18
2022-12-19T12:08:47.774Z,3.53
2022-12-19T12:13:22.347Z,3.28
2022-12-19T12:24:48.938Z,4.38
2022-12-19T12:30:28.407Z,2.67
2022-12-19T12:31:14.855Z,3.58
2022-12-19T12:31:50.993Z,2.97
2022-12-19T12:31:51.156Z,3.15
2022-12-19T12:32:04.670Z,4.97
2022-12-19T12:35:34.978Z,3.60
2022-12-19T12:35:46.560Z,4.10
2022-12-19T12:40:44.983Z,2.85
2022-12-19T12:43:30.104Z,3.83
2022-12-19T12:45:56.553Z,11.57
2022-12-19T12:48:34.183Z,5.30
2022-12-19T12:51:00.855Z,7.43
2022-12-19T12:53:29.675Z,4.38
2022-12-19T12:55:56.947Z,5.65
2022-12-19T12:58:41.981Z,4.13
2022-12-19T13:01:09.874Z,3.70
2022-12-19T13:03:36.270Z,1.95
2022-12-19T13:06:07.548Z,2.45
2022-12-19T13:08:33.853Z,4.10
2022-12-19T13:11:01.529Z,3.08
2022-12-19T13:13:46.287Z,3.28
2022-12-19T13:16:31.681Z,2.60
2022-12-19T13:19:18.461Z,2.17
2022-12-19T13:22:07.386Z,3.45
2022-12-19T13:24:42.547Z,3.38
2022-12-19T13:27:21.030Z,3.63
2022-12-19T13:29:56.675Z,4.90
2022-12-19T13:32:23.217Z,2.75
2022-12-19T13:35:01.743Z,1.85
2022-12-19T13:39:54.778Z,6.22
2022-12-19T13:40:34.128Z,2.70
2022-12-19T13:43:21.940Z,3.38
2022-12-19T13:45:50.937Z,5.55
2022-12-19T13:48:20.533Z,4.28
2022-12-19T13:50:48.990Z,2.22
2022-12-19T13:53:16.919Z,3.30
2022-12-19T13:55:43.751Z,4.13
2022-12-19T13:58:31.215Z,3.33
2022-12-19T14:01:08.376Z,4.53
2022-12-19T14:03:48.312Z,2.20
2022-12-19T14:06:26.875Z,2.47
2022-12-19T14:11:24.055Z,4.72
2022-12-19T14:13:37.202Z,4.25
2022-12-19T14:15:13.178Z,7.05
2022-12-19T14:17:40.217Z,3.55
2022-12-19T14:21:36.422Z,2.47
2022-12-19T14:23:04.375Z,5.07
2022-12-19T14:28:14.104Z,4.43
2022-12-19T14:28:30.241Z,3.47
2022-12-19T14:31:00.145Z,3.17
2022-12-19T14:33:46.310Z,2.17
2022-12-19T14:36:26.486Z,2.78
2022-12-19T14:39:22.265Z,3.15
2022-12-19T14:42:02.139Z,2.28
2022-12-19T14:52:34.908Z,2.65
2022-12-19T14:54:01.841Z,2.03
2022-12-19T14:54:30.493Z,4.82
2022-12-19T14:54:37.729Z,2.28
2022-12-19T14:56:43.772Z,2.38
2022-12-19T14:59:04.431Z,2.10
2022-12-19T15:01:32.747Z,2.50
2022-12-19T15:04:53.369Z,4.20
2022-12-19T15:07:07.604Z,2.17
2022-12-19T15:11:04.351Z,3.13
2022-12-19T15:14:56.563Z,4.50
2022-12-19T15:15:45.619Z,1.70
2022-12-19T15:18:18.347Z,2.08
2022-12-19T15:20:44.599Z,3.38
2022-12-19T15:23:13.094Z,3.17
2022-12-19T15:26:03.477Z,3.33
2022-12-19T15:28:49.545Z,1.95
2022-12-19T15:31:27.855Z,2.42
2022-12-19T15:36:41.052Z,4.28
2022-12-19T15:39:07.498Z,2.08
2022-12-19T15:41:34.097Z,2.90
2022-12-19T15:44:04.274Z,2.58
2022-12-19T15:48:57.582Z,3.08
2022-12-19T15:51:23.824Z,6.30
2022-12-19T15:53:50.291Z,6.53
2022-12-19T15:56:27.500Z,5.18
2022-12-19T15:58:54.443Z,3.85
2022-12-19T16:01:21.706Z,3.05
2022-12-19T16:03:48.610Z,4.88
2022-12-19T16:06:15.245Z,2.88
2022-12-19T16:08:41.796Z,4.03
2022-12-19T16:11:16.984Z,3.45
2022-12-19T16:13:45.121Z,5.13
2022-12-19T16:16:15.844Z,4.85
2022-12-19T16:18:42.867Z,9.55
2022-12-19T16:21:17.610Z,5.47
2022-12-19T16:23:43.959Z,2.72
2022-12-19T16:26:18.097Z,3.00
2022-12-19T16:28:44.511Z,2.55
2022-12-19T16:31:15.003Z,1.60
2022-12-19T16:33:41.475Z,9.30
2022-12-19T16:36:08.691Z,5.20
2022-12-19T16:38:35.437Z,3.45
2022-12-19T16:41:02.036Z,2.47
2022-12-19T16:43:30.707Z,3.25
2022-12-19T16:46:01.144Z,2.80
2022-12-19T16:48:32.200Z,2.53
2022-12-19T16:50:58.819Z,5.20
2022-12-19T16:53:25.192Z,4.32
2022-12-19T16:55:51.652Z,4.53
2022-12-19T16:58:22.597Z,4.88
2022-12-19T17:03:21.585Z,5.03
2022-12-19T17:05:47.962Z,2.75
2022-12-19T17:08:14.329Z,2.30
2022-12-19T17:10:43.580Z,2.05
2022-12-19T17:13:10.705Z,2.65
2022-12-19T17:15:37.445Z,2.15
2022-12-19T17:18:07.281Z,6.53
2022-12-19T17:20:41.875Z,2.22
2022-12-19T17:23:18.985Z,3.42
2022-12-19T17:25:45.611Z,3.83
2022-12-19T17:28:12.822Z,1.75
2022-12-19T17:30:39.794Z,2.75
2022-12-19T17:33:06.527Z,3.10
2022-12-19T17:35:36.471Z,2.83
2022-12-19T17:38:03.249Z,4.00
2022-12-19T17:40:31.485Z,3.38
2022-12-19T17:42:58.188Z,3.05
2022-12-19T17:45:25.802Z,2.90
2022-12-19T17:47:58.376Z,6.18
2022-12-19T17:50:29.624Z,2.55
2022-12-19T17:52:56.609Z,3.15
2022-12-19T17:55:27.720Z,4.22
2022-12-19T17:57:54.859Z,3.15
2022-12-19T18:00:30.119Z,2.15
2022-12-19T18:02:57.611Z,4.70
2022-12-19T18:05:36.780Z,6.07
2022-12-19T18:08:03.728Z,2.88
2022-12-19T18:10:31.165Z,3.25
2022-12-19T18:12:58.122Z,3.67
2022-12-19T18:15:24.943Z,1.33
2022-12-19T18:17:52.060Z,2.20
2022-12-19T18:20:30.913Z,8.20
2022-12-19T18:22:59.153Z,4.03
2022-12-19T18:25:26.852Z,4.63
2022-12-19T18:27:53.732Z,3.65
2022-12-19T18:30:21.098Z,3.00
2022-12-19T18:32:56.321Z,2.78
2022-12-19T18:35:29.506Z,4.50
2022-12-19T18:37:58.275Z,5.07
2022-12-19T18:40:30.988Z,3.70
2022-12-19T18:42:57.734Z,3.55
2022-12-19T18:45:27.952Z,2.50
2022-12-19T18:47:59.049Z,6.10
2022-12-19T18:50:26.061Z,4.13
2022-12-19T18:52:53.361Z,2.80
2022-12-19T18:55:19.735Z,3.08
2022-12-19T18:57:46.541Z,4.60
2022-12-19T19:00:14.483Z,3.40
2022-12-19T19:02:44.203Z,3.22
2022-12-19T19:05:14.444Z,2.35
2022-12-19T19:07:40.714Z,1.80
2022-12-19T19:10:15.001Z,2.53
2022-12-19T19:12:41.287Z,1.73
2022-12-19T19:15:07.686Z,5.68
2022-12-19T19:17:34.065Z,2.25
2022-12-19T19:20:00.748Z,2.10
2022-12-19T19:22:27.038Z,3.00
2022-12-19T19:24:53.290Z,2.15
2022-12-19T19:27:19.747Z,2.50
2022-12-19T19:29:46.100Z,2.55
2022-12-19T19:32:12.426Z,1.88
2022-12-19T19:34:40.596Z,2.47
2022-12-19T19:37:07.904Z,3.25
2022-12-19T19:39:34.412Z,2.30
2022-12-19T19:42:01.217Z,6.03
2022-12-19T19:44:28.124Z,3.33
2022-12-19T19:46:54.990Z,3.65
2022-12-19T19:49:21.900Z,1.95
2022-12-19T19:51:48.334Z,3.13
2022-12-19T19:54:14.752Z,4.25
2022-12-19T19:56:41.129Z,5.82
2022-12-19T19:59:07.745Z,5.47
2022-12-19T20:01:34.426Z,11.07
2022-12-19T20:04:00.876Z,8.30
2022-12-19T20:06:27.309Z,1.83
2022-12-19T20:08:53.651Z,5.63
2022-12-19T20:11:20.680Z,2.45
2022-12-19T20:13:47.037Z,2.00
2022-12-19T20:16:15.817Z,2.58
2022-12-19T20:18:45.961Z,7.25
2022-12-19T20:21:13.775Z,4.57
2022-12-19T20:23:41.627Z,8.95
2022-12-19T20:26:08.016Z,5.82
2022-12-19T20:28:34.679Z,2.35
2022-12-19T20:31:01.157Z,1.60
2022-12-19T20:33:27.659Z,2.30
2022-12-19T20:35:57.764Z,3.45
2022-12-19T20:38:24.303Z,3.33
2022-12-19T20:40:55.760Z,2.58
2022-12-19T20:43:22.734Z,6.28
2022-12-19T20:45:49.013Z,2.20
2022-12-19T20:48:15.305Z,2.88
2022-12-19T20:50:43.363Z,8.23
2022-12-19T20:53:10.205Z,3.00
2022-12-19T20:55:36.590Z,2.70
2022-12-19T20:58:02.865Z,3.50
2022-12-19T21:00:29.158Z,5.88
2022-12-19T21:03:26.404Z,3.75
2022-12-19T21:05:42.000Z,2.20
2022-12-19T21:08:08.273Z,3.83
2022-12-19T21:10:35.473Z,2.42
2022-12-19T21:13:01.783Z,2.88
2022-12-19T21:15:28.057Z,2.92
2022-12-19T21:17:54.489Z,6.18
2022-12-19T21:20:20.810Z,2.30
2022-12-19T21:22:47.047Z,3.10
2022-12-19T21:25:13.420Z,3.90
2022-12-19T21:27:39.747Z,5.05
2022-12-19T21:30:06.373Z,3.90
2022-12-19T21:32:32.653Z,2.28
2022-12-19T21:34:59.064Z,5.22
2022-12-19T21:37:25.443Z,4.85
2022-12-19T21:39:51.744Z,3.05
2022-12-19T21:42:18.008Z,2.80
2022-12-19T21:44:44.691Z,3.47
2022-12-19T21:47:10.953Z,7.50
2022-12-19T21:49:37.426Z,2.95
2022-12-19T21:52:03.992Z,2.15
2022-12-19T21:54:30.259Z,2.40
2022-12-19T21:56:56.489Z,5.43
2022-12-19T21:59:22.797Z,6.35
2022-12-19T22:01:49.314Z,3.95
2022-12-19T22:04:17.741Z,8.15
2022-12-19T22:06:44.160Z,1.75
2022-12-19T22:09:12.700Z,2.42
2022-12-19T22:11:39.179Z,2.45
2022-12-19T22:14:06.011Z,5.50
2022-12-19T22:16:32.885Z,4.03
2022-12-19T22:18:59.377Z,1.95
2022-12-19T22:21:25.819Z,2.90
2022-12-19T22:23:52.231Z,4.07
2022-12-19T22:26:20.675Z,2.05
2022-12-19T22:28:48.199Z,4.90
2022-12-19T22:31:20.686Z,1.92
2022-12-19T22:33:47.404Z,1.85
2022-12-19T22:36:15.622Z,3.50
2022-12-19T22:38:44.199Z,2.60
2022-12-19T22:41:10.939Z,2.67
2022-12-19T22:43:38.900Z,1.92
2022-12-19T22:46:14.235Z,6.03
2022-12-19T22:48:41.283Z,3.90
2022-12-19T22:51:08.025Z,2.10
2022-12-19T22:53:35.156Z,3.47
2022-12-19T22:56:06.171Z,1.77
2022-12-19T22:58:36.377Z,4.72
2022-12-19T23:01:11.859Z,2.50
2022-12-19T23:03:38.352Z,2.08
2022-12-19T23:06:04.871Z,2.65
2022-12-19T23:08:31.292Z,4.43
2022-12-19T23:10:57.523Z,2.50
2022-12-19T23:13:24.659Z,1.95
2022-12-19T23:15:50.963Z,2.22
2022-12-19T23:18:17.487Z,2.05
2022-12-19T23:20:44.042Z,2.13
2022-12-19T23:23:10.646Z,2.40
2022-12-19T23:25:37.962Z,3.55
2022-12-19T23:28:04.355Z,1.85
2022-12-19T23:30:30.604Z,3.83
2022-12-19T23:32:56.819Z,2.40
2022-12-19T23:35:23.112Z,3.42
2022-12-19T23:37:49.432Z,2.47
2022-12-19T23:40:15.735Z,3.60
2022-12-19T23:42:42.134Z,2.70
2022-12-19T23:45:08.726Z,2.00
2022-12-19T23:47:35.067Z,3.10
2022-12-19T23:50:01.438Z,2.40
2022-12-19T23:52:27.783Z,2.00
2022-12-19T23:54:54.094Z,1.92
2022-12-19T23:57:20.326Z,1.75
2022-12-19T23:59:46.722Z,2.78
